sensor_id;sensor_type;location;lat;lon;timestamp;P1;durP1;ratioP1;P2;durP2;ratioP2
58864;SDS011;45702;52.982;6.658;2022-11-20T00:01:48;116.78;;;55.17;;
58864;SDS011;45702;52.982;6.658;2022-11-20T00:04:14;117.50;;;54.30;;
58864;SDS011;45702;52.982;6.658;2022-11-20T00:06:40;111.93;;;55.42;;
58864;SDS011;45702;52.982;6.658;2022-11-20T00:09:06;116.55;;;55.75;;
58864;SDS011;45702;52.982;6.658;2022-11-20T00:11:32;118.22;;;56.00;;
58864;SDS011;45702;52.982;6.658;2022-11-20T00:13:59;115.03;;;55.70;;
58864;SDS011;45702;52.982;6.658;2022-11-20T00:16:30;127.88;;;57.85;;
58864;SDS011;45702;52.982;6.658;2022-11-20T00:18:59;120.45;;;57.30;;
58864;SDS011;45702;52.982;6.658;2022-11-20T00:21:26;131.15;;;60.47;;
58864;SDS011;45702;52.982;6.658;2022-11-20T00:23:53;120.90;;;58.45;;
58864;SDS011;45702;52.982;6.658;2022-11-20T00:26:20;119.90;;;56.58;;
58864;SDS011;45702;52.982;6.658;2022-11-20T00:28:50;104.78;;;52.15;;
58864;SDS011;45702;52.982;6.658;2022-11-20T00:31:17;114.63;;;54.25;;
58864;SDS011;45702;52.982;6.658;2022-11-20T00:33:43;108.50;;;51.97;;
58864;SDS011;45702;52.982;6.658;2022-11-20T00:36:10;99.43;;;48.47;;
58864;SDS011;45702;52.982;6.658;2022-11-20T00:38:37;97.05;;;45.67;;
58864;SDS011;45702;52.982;6.658;2022-11-20T00:41:07;92.70;;;45.00;;
58864;SDS011;45702;52.982;6.658;2022-11-20T00:43:33;80.75;;;39.30;;
58864;SDS011;45702;52.982;6.658;2022-11-20T00:46:03;82.00;;;38.72;;
58864;SDS011;45702;52.982;6.658;2022-11-20T00:48:30;78.75;;;37.72;;
58864;SDS011;45702;52.982;6.658;2022-11-20T00:50:56;68.13;;;32.78;;
58864;SDS011;45702;52.982;6.658;2022-11-20T00:53:22;73.68;;;36.35;;
58864;SDS011;45702;52.982;6.658;2022-11-20T00:58:21;82.45;;;37.85;;
58864;SDS011;45702;52.982;6.658;2022-11-20T01:00:47;75.38;;;38.00;;
58864;SDS011;45702;52.982;6.658;2022-11-20T01:03:14;80.38;;;36.50;;
58864;SDS011;45702;52.982;6.658;2022-11-20T01:05:41;73.70;;;34.75;;
58864;SDS011;45702;52.982;6.658;2022-11-20T01:08:07;70.00;;;31.42;;
58864;SDS011;45702;52.982;6.658;2022-11-20T01:10:33;63.42;;;29.60;;
58864;SDS011;45702;52.982;6.658;2022-11-20T01:12:59;61.28;;;27.15;;
58864;SDS011;45702;52.982;6.658;2022-11-20T01:15:44;57.67;;;26.33;;
58864;SDS011;45702;52.982;6.658;2022-11-20T01:18:10;56.97;;;25.27;;
58864;SDS011;45702;52.982;6.658;2022-11-20T01:20:36;53.83;;;25.73;;
58864;SDS011;45702;52.982;6.658;2022-11-20T01:23:02;56.42;;;25.10;;
58864;SDS011;45702;52.982;6.658;2022-11-20T01:25:28;54.25;;;24.42;;
58864;SDS011;45702;52.982;6.658;2022-11-20T01:27:55;57.25;;;25.90;;
58864;SDS011;45702;52.982;6.658;2022-11-20T01:30:21;51.45;;;24.15;;
58864;SDS011;45702;52.982;6.658;2022-11-20T01:32:47;51.72;;;23.42;;
58864;SDS011;45702;52.982;6.658;2022-11-20T01:35:13;54.58;;;25.02;;
58864;SDS011;45702;52.982;6.658;2022-11-20T01:37:39;54.08;;;25.40;;
58864;SDS011;45702;52.982;6.658;2022-11-20T01:40:05;54.20;;;25.33;;
58864;SDS011;45702;52.982;6.658;2022-11-20T01:42:32;52.78;;;25.48;;
58864;SDS011;45702;52.982;6.658;2022-11-20T01:48:01;57.00;;;25.55;;
58864;SDS011;45702;52.982;6.658;2022-11-20T01:50:27;52.85;;;24.08;;
58864;SDS011;45702;52.982;6.658;2022-11-20T01:53:04;56.20;;;26.00;;
58864;SDS011;45702;52.982;6.658;2022-11-20T01:55:33;54.38;;;24.92;;
58864;SDS011;45702;52.982;6.658;2022-11-20T01:58:01;55.20;;;25.58;;
58864;SDS011;45702;52.982;6.658;2022-11-20T02:00:27;53.30;;;24.05;;
58864;SDS011;45702;52.982;6.658;2022-11-20T02:02:56;55.60;;;25.80;;
58864;SDS011;45702;52.982;6.658;2022-11-20T02:05:25;55.13;;;25.77;;
58864;SDS011;45702;52.982;6.658;2022-11-20T02:07:52;58.95;;;26.02;;
58864;SDS011;45702;52.982;6.658;2022-11-20T02:10:20;55.40;;;26.40;;
58864;SDS011;45702;52.982;6.658;2022-11-20T02:12:46;57.47;;;26.42;;
58864;SDS011;45702;52.982;6.658;2022-11-20T02:15:32;54.80;;;24.45;;
58864;SDS011;45702;52.982;6.658;2022-11-20T02:17:58;54.70;;;26.02;;
58864;SDS011;45702;52.982;6.658;2022-11-20T02:20:24;54.85;;;26.73;;
58864;SDS011;45702;52.982;6.658;2022-11-20T02:22:53;58.80;;;25.45;;
58864;SDS011;45702;52.982;6.658;2022-11-20T02:25:20;55.78;;;25.00;;
58864;SDS011;45702;52.982;6.658;2022-11-20T02:27:46;56.45;;;25.83;;
58864;SDS011;45702;52.982;6.658;2022-11-20T02:30:13;56.33;;;25.55;;
58864;SDS011;45702;52.982;6.658;2022-11-20T02:32:39;53.20;;;25.55;;
58864;SDS011;45702;52.982;6.658;2022-11-20T02:37:43;60.20;;;25.77;;
58864;SDS011;45702;52.982;6.658;2022-11-20T02:40:10;58.90;;;27.13;;
58864;SDS011;45702;52.982;6.658;2022-11-20T02:42:36;59.53;;;26.38;;
58864;SDS011;45702;52.982;6.658;2022-11-20T02:45:03;59.63;;;27.15;;
58864;SDS011;45702;52.982;6.658;2022-11-20T02:47:30;56.97;;;26.73;;
58864;SDS011;45702;52.982;6.658;2022-11-20T02:49:56;57.95;;;25.95;;
58864;SDS011;45702;52.982;6.658;2022-11-20T02:52:22;55.55;;;25.92;;
58864;SDS011;45702;52.982;6.658;2022-11-20T02:54:48;55.20;;;26.35;;
58864;SDS011;45702;52.982;6.658;2022-11-20T02:57:14;60.28;;;26.73;;
58864;SDS011;45702;52.982;6.658;2022-11-20T02:59:40;56.13;;;26.17;;
58864;SDS011;45702;52.982;6.658;2022-11-20T03:02:06;50.75;;;25.13;;
58864;SDS011;45702;52.982;6.658;2022-11-20T03:04:32;55.72;;;25.20;;
58864;SDS011;45702;52.982;6.658;2022-11-20T03:06:59;53.65;;;25.73;;
58864;SDS011;45702;52.982;6.658;2022-11-20T03:09:25;51.55;;;24.95;;
58864;SDS011;45702;52.982;6.658;2022-11-20T03:11:51;60.70;;;26.75;;
58864;SDS011;45702;52.982;6.658;2022-11-20T03:14:17;53.97;;;25.33;;
58864;SDS011;45702;52.982;6.658;2022-11-20T03:16:43;51.25;;;24.17;;
58864;SDS011;45702;52.982;6.658;2022-11-20T03:19:09;53.10;;;24.55;;
58864;SDS011;45702;52.982;6.658;2022-11-20T03:21:35;52.53;;;24.25;;
58864;SDS011;45702;52.982;6.658;2022-11-20T03:24:01;45.92;;;23.38;;
58864;SDS011;45702;52.982;6.658;2022-11-20T03:26:27;53.65;;;24.02;;
58864;SDS011;45702;52.982;6.658;2022-11-20T03:28:55;55.88;;;25.20;;
58864;SDS011;45702;52.982;6.658;2022-11-20T03:31:23;52.67;;;25.00;;
58864;SDS011;45702;52.982;6.658;2022-11-20T03:33:49;49.92;;;23.63;;
58864;SDS011;45702;52.982;6.658;2022-11-20T03:36:16;51.53;;;24.08;;
58864;SDS011;45702;52.982;6.658;2022-11-20T03:38:42;48.30;;;24.50;;
58864;SDS011;45702;52.982;6.658;2022-11-20T03:41:15;49.05;;;24.13;;
58864;SDS011;45702;52.982;6.658;2022-11-20T03:43:42;52.85;;;24.90;;
58864;SDS011;45702;52.982;6.658;2022-11-20T03:46:12;49.65;;;22.92;;
58864;SDS011;45702;52.982;6.658;2022-11-20T03:48:38;58.58;;;24.67;;
58864;SDS011;45702;52.982;6.658;2022-11-20T03:51:11;55.40;;;24.73;;
58864;SDS011;45702;52.982;6.658;2022-11-20T03:53:38;46.92;;;23.52;;
58864;SDS011;45702;52.982;6.658;2022-11-20T03:56:04;49.15;;;22.75;;
58864;SDS011;45702;52.982;6.658;2022-11-20T03:58:30;51.00;;;24.02;;
58864;SDS011;45702;52.982;6.658;2022-11-20T04:00:56;50.90;;;23.75;;
58864;SDS011;45702;52.982;6.658;2022-11-20T04:03:22;52.35;;;24.85;;
58864;SDS011;45702;52.982;6.658;2022-11-20T04:05:48;49.35;;;23.67;;
58864;SDS011;45702;52.982;6.658;2022-11-20T04:08:17;51.78;;;24.80;;
58864;SDS011;45702;52.982;6.658;2022-11-20T04:10:43;52.50;;;23.83;;
58864;SDS011;45702;52.982;6.658;2022-11-20T04:13:09;49.53;;;22.73;;
58864;SDS011;45702;52.982;6.658;2022-11-20T04:15:35;49.22;;;23.20;;
58864;SDS011;45702;52.982;6.658;2022-11-20T04:18:01;49.28;;;23.77;;
58864;SDS011;45702;52.982;6.658;2022-11-20T04:20:27;50.13;;;23.70;;
58864;SDS011;45702;52.982;6.658;2022-11-20T04:22:53;51.35;;;22.83;;
58864;SDS011;45702;52.982;6.658;2022-11-20T04:25:19;47.97;;;23.38;;
58864;SDS011;45702;52.982;6.658;2022-11-20T04:27:45;47.38;;;23.35;;
58864;SDS011;45702;52.982;6.658;2022-11-20T04:30:12;49.00;;;23.35;;
58864;SDS011;45702;52.982;6.658;2022-11-20T04:32:38;44.13;;;21.65;;
58864;SDS011;45702;52.982;6.658;2022-11-20T04:35:04;47.10;;;22.48;;
58864;SDS011;45702;52.982;6.658;2022-11-20T04:37:30;50.83;;;23.60;;
58864;SDS011;45702;52.982;6.658;2022-11-20T04:39:56;44.10;;;21.63;;
58864;SDS011;45702;52.982;6.658;2022-11-20T04:42:22;45.17;;;21.80;;
58864;SDS011;45702;52.982;6.658;2022-11-20T04:44:54;48.53;;;21.88;;
58864;SDS011;45702;52.982;6.658;2022-11-20T04:47:20;47.65;;;22.55;;
58864;SDS011;45702;52.982;6.658;2022-11-20T04:49:46;48.95;;;23.20;;
58864;SDS011;45702;52.982;6.658;2022-11-20T04:52:12;46.00;;;22.65;;
58864;SDS011;45702;52.982;6.658;2022-11-20T04:54:38;47.33;;;22.40;;
58864;SDS011;45702;52.982;6.658;2022-11-20T04:57:04;49.10;;;23.70;;
58864;SDS011;45702;52.982;6.658;2022-11-20T04:59:30;48.47;;;23.58;;
58864;SDS011;45702;52.982;6.658;2022-11-20T05:01:56;53.63;;;24.27;;
58864;SDS011;45702;52.982;6.658;2022-11-20T05:04:22;48.70;;;23.67;;
58864;SDS011;45702;52.982;6.658;2022-11-20T05:06:49;50.13;;;23.35;;
58864;SDS011;45702;52.982;6.658;2022-11-20T05:09:15;48.67;;;22.67;;
58864;SDS011;45702;52.982;6.658;2022-11-20T05:11:41;50.75;;;24.45;;
58864;SDS011;45702;52.982;6.658;2022-11-20T05:14:07;47.78;;;23.52;;
58864;SDS011;45702;52.982;6.658;2022-11-20T05:16:33;46.60;;;23.08;;
58864;SDS011;45702;52.982;6.658;2022-11-20T05:19:01;48.38;;;22.77;;
58864;SDS011;45702;52.982;6.658;2022-11-20T05:21:27;49.33;;;23.85;;
58864;SDS011;45702;52.982;6.658;2022-11-20T05:23:53;47.97;;;23.17;;
58864;SDS011;45702;52.982;6.658;2022-11-20T05:26:20;47.63;;;24.10;;
58864;SDS011;45702;52.982;6.658;2022-11-20T05:28:47;52.55;;;24.38;;
58864;SDS011;45702;52.982;6.658;2022-11-20T05:31:20;46.50;;;23.08;;
58864;SDS011;45702;52.982;6.658;2022-11-20T05:33:47;50.05;;;23.60;;
58864;SDS011;45702;52.982;6.658;2022-11-20T05:36:13;45.30;;;22.73;;
58864;SDS011;45702;52.982;6.658;2022-11-20T05:38:40;51.50;;;23.13;;
58864;SDS011;45702;52.982;6.658;2022-11-20T05:41:07;53.40;;;24.48;;
58864;SDS011;45702;52.982;6.658;2022-11-20T05:43:33;48.30;;;23.27;;
58864;SDS011;45702;52.982;6.658;2022-11-20T05:46:00;47.72;;;22.15;;
58864;SDS011;45702;52.982;6.658;2022-11-20T05:48:26;49.47;;;22.92;;
58864;SDS011;45702;52.982;6.658;2022-11-20T05:50:52;42.97;;;21.23;;
58864;SDS011;45702;52.982;6.658;2022-11-20T05:53:18;48.05;;;22.33;;
58864;SDS011;45702;52.982;6.658;2022-11-20T05:55:44;48.97;;;22.42;;
58864;SDS011;45702;52.982;6.658;2022-11-20T05:58:10;47.85;;;22.70;;
58864;SDS011;45702;52.982;6.658;2022-11-20T06:00:36;44.03;;;21.92;;
58864;SDS011;45702;52.982;6.658;2022-11-20T06:03:02;48.20;;;22.73;;
58864;SDS011;45702;52.982;6.658;2022-11-20T06:05:28;52.05;;;22.73;;
58864;SDS011;45702;52.982;6.658;2022-11-20T06:07:54;49.05;;;22.50;;
58864;SDS011;45702;52.982;6.658;2022-11-20T06:10:20;53.90;;;23.98;;
58864;SDS011;45702;52.982;6.658;2022-11-20T06:12:46;53.15;;;23.63;;
58864;SDS011;45702;52.982;6.658;2022-11-20T06:15:13;47.13;;;22.92;;
58864;SDS011;45702;52.982;6.658;2022-11-20T06:17:39;45.38;;;22.27;;
58864;SDS011;45702;52.982;6.658;2022-11-20T06:20:05;47.10;;;21.35;;
58864;SDS011;45702;52.982;6.658;2022-11-20T06:22:31;52.53;;;22.67;;
58864;SDS011;45702;52.982;6.658;2022-11-20T06:24:57;46.83;;;20.95;;
58864;SDS011;45702;52.982;6.658;2022-11-20T06:27:23;38.88;;;19.35;;
58864;SDS011;45702;52.982;6.658;2022-11-20T06:29:50;37.80;;;19.17;;
58864;SDS011;45702;52.982;6.658;2022-11-20T06:32:16;39.03;;;19.20;;
58864;SDS011;45702;52.982;6.658;2022-11-20T06:34:42;40.13;;;19.42;;
58864;SDS011;45702;52.982;6.658;2022-11-20T06:37:08;42.53;;;20.00;;
58864;SDS011;45702;52.982;6.658;2022-11-20T06:39:34;39.42;;;19.05;;
58864;SDS011;45702;52.982;6.658;2022-11-20T06:42:00;39.70;;;18.77;;
58864;SDS011;45702;52.982;6.658;2022-11-20T06:44:26;40.08;;;18.70;;
58864;SDS011;45702;52.982;6.658;2022-11-20T06:46:52;41.83;;;18.98;;
58864;SDS011;45702;52.982;6.658;2022-11-20T06:49:18;40.00;;;17.52;;
58864;SDS011;45702;52.982;6.658;2022-11-20T06:51:44;37.85;;;18.05;;
58864;SDS011;45702;52.982;6.658;2022-11-20T06:54:10;36.03;;;17.73;;
58864;SDS011;45702;52.982;6.658;2022-11-20T06:56:36;34.90;;;17.25;;
58864;SDS011;45702;52.982;6.658;2022-11-20T06:59:06;38.17;;;18.58;;
58864;SDS011;45702;52.982;6.658;2022-11-20T07:01:32;36.70;;;17.77;;
58864;SDS011;45702;52.982;6.658;2022-11-20T07:04:00;38.58;;;18.50;;
58864;SDS011;45702;52.982;6.658;2022-11-20T07:06:26;37.45;;;17.92;;
58864;SDS011;45702;52.982;6.658;2022-11-20T07:08:52;38.45;;;18.08;;
58864;SDS011;45702;52.982;6.658;2022-11-20T07:11:18;37.17;;;17.52;;
58864;SDS011;45702;52.982;6.658;2022-11-20T07:13:44;37.53;;;17.67;;
58864;SDS011;45702;52.982;6.658;2022-11-20T07:16:10;38.63;;;18.63;;
58864;SDS011;45702;52.982;6.658;2022-11-20T07:18:36;40.72;;;18.85;;
58864;SDS011;45702;52.982;6.658;2022-11-20T07:21:02;41.40;;;19.52;;
58864;SDS011;45702;52.982;6.658;2022-11-20T07:23:29;40.03;;;18.88;;
58864;SDS011;45702;52.982;6.658;2022-11-20T07:25:55;41.80;;;20.23;;
58864;SDS011;45702;52.982;6.658;2022-11-20T07:28:21;38.45;;;18.52;;
58864;SDS011;45702;52.982;6.658;2022-11-20T07:30:50;39.08;;;18.48;;
58864;SDS011;45702;52.982;6.658;2022-11-20T07:33:16;37.08;;;18.77;;
58864;SDS011;45702;52.982;6.658;2022-11-20T07:35:43;43.60;;;19.85;;
58864;SDS011;45702;52.982;6.658;2022-11-20T07:38:09;41.97;;;18.83;;
58864;SDS011;45702;52.982;6.658;2022-11-20T07:40:35;41.10;;;18.88;;
58864;SDS011;45702;52.982;6.658;2022-11-20T07:43:01;38.38;;;18.70;;
58864;SDS011;45702;52.982;6.658;2022-11-20T07:45:27;38.88;;;18.50;;
58864;SDS011;45702;52.982;6.658;2022-11-20T07:47:53;42.28;;;19.58;;
58864;SDS011;45702;52.982;6.658;2022-11-20T07:50:19;38.45;;;18.40;;
58864;SDS011;45702;52.982;6.658;2022-11-20T07:52:45;35.88;;;18.38;;
58864;SDS011;45702;52.982;6.658;2022-11-20T07:55:11;37.10;;;18.75;;
58864;SDS011;45702;52.982;6.658;2022-11-20T07:57:37;41.78;;;18.75;;
58864;SDS011;45702;52.982;6.658;2022-11-20T08:00:04;37.72;;;18.70;;
58864;SDS011;45702;52.982;6.658;2022-11-20T08:02:30;41.58;;;19.27;;
58864;SDS011;45702;52.982;6.658;2022-11-20T08:04:56;38.45;;;19.35;;
58864;SDS011;45702;52.982;6.658;2022-11-20T08:07:22;42.20;;;20.33;;
58864;SDS011;45702;52.982;6.658;2022-11-20T08:09:48;42.20;;;19.20;;
58864;SDS011;45702;52.982;6.658;2022-11-20T08:12:18;37.15;;;18.20;;
58864;SDS011;45702;52.982;6.658;2022-11-20T08:15:04;35.38;;;17.35;;
58864;SDS011;45702;52.982;6.658;2022-11-20T08:17:30;35.35;;;17.20;;
58864;SDS011;45702;52.982;6.658;2022-11-20T08:19:57;38.13;;;18.20;;
58864;SDS011;45702;52.982;6.658;2022-11-20T08:22:23;40.05;;;18.80;;
58864;SDS011;45702;52.982;6.658;2022-11-20T08:24:50;39.28;;;18.75;;
58864;SDS011;45702;52.982;6.658;2022-11-20T08:27:16;38.65;;;19.42;;
58864;SDS011;45702;52.982;6.658;2022-11-20T08:29:42;41.42;;;21.15;;
58864;SDS011;45702;52.982;6.658;2022-11-20T08:32:08;38.78;;;18.88;;
58864;SDS011;45702;52.982;6.658;2022-11-20T08:34:34;40.55;;;18.85;;
58864;SDS011;45702;52.982;6.658;2022-11-20T08:37:01;40.25;;;19.20;;
58864;SDS011;45702;52.982;6.658;2022-11-20T08:39:27;36.95;;;19.50;;
58864;SDS011;45702;52.982;6.658;2022-11-20T08:41:54;37.88;;;17.83;;
58864;SDS011;45702;52.982;6.658;2022-11-20T08:44:20;41.65;;;19.20;;
58864;SDS011;45702;52.982;6.658;2022-11-20T08:46:46;39.78;;;18.35;;
58864;SDS011;45702;52.982;6.658;2022-11-20T08:49:12;40.08;;;18.17;;
58864;SDS011;45702;52.982;6.658;2022-11-20T08:51:39;36.22;;;16.33;;
58864;SDS011;45702;52.982;6.658;2022-11-20T08:54:05;34.05;;;17.85;;
58864;SDS011;45702;52.982;6.658;2022-11-20T08:56:32;40.63;;;19.02;;
58864;SDS011;45702;52.982;6.658;2022-11-20T08:58:58;38.13;;;17.52;;
58864;SDS011;45702;52.982;6.658;2022-11-20T09:01:24;35.40;;;16.85;;
58864;SDS011;45702;52.982;6.658;2022-11-20T09:03:50;36.50;;;16.85;;
58864;SDS011;45702;52.982;6.658;2022-11-20T09:06:17;34.00;;;16.75;;
58864;SDS011;45702;52.982;6.658;2022-11-20T09:08:43;38.88;;;18.25;;
58864;SDS011;45702;52.982;6.658;2022-11-20T09:11:09;37.47;;;16.85;;
58864;SDS011;45702;52.982;6.658;2022-11-20T09:13:36;37.25;;;16.90;;
58864;SDS011;45702;52.982;6.658;2022-11-20T09:16:03;33.47;;;16.50;;
58864;SDS011;45702;52.982;6.658;2022-11-20T09:18:29;35.47;;;17.13;;
58864;SDS011;45702;52.982;6.658;2022-11-20T09:21:01;38.55;;;16.85;;
58864;SDS011;45702;52.982;6.658;2022-11-20T09:23:30;37.00;;;16.77;;
58864;SDS011;45702;52.982;6.658;2022-11-20T09:25:57;34.70;;;16.67;;
58864;SDS011;45702;52.982;6.658;2022-11-20T09:28:25;36.20;;;17.60;;
58864;SDS011;45702;52.982;6.658;2022-11-20T09:30:51;34.55;;;16.63;;
58864;SDS011;45702;52.982;6.658;2022-11-20T09:33:17;31.48;;;16.48;;
58864;SDS011;45702;52.982;6.658;2022-11-20T09:35:44;31.90;;;16.65;;
58864;SDS011;45702;52.982;6.658;2022-11-20T09:38:10;31.17;;;15.98;;
58864;SDS011;45702;52.982;6.658;2022-11-20T09:40:38;32.83;;;15.80;;
58864;SDS011;45702;52.982;6.658;2022-11-20T09:43:17;34.83;;;16.35;;
58864;SDS011;45702;52.982;6.658;2022-11-20T09:50:37;33.17;;;15.65;;
58864;SDS011;45702;52.982;6.658;2022-11-20T09:55:40;33.80;;;15.98;;
58864;SDS011;45702;52.982;6.658;2022-11-20T09:58:07;32.17;;;15.73;;
58864;SDS011;45702;52.982;6.658;2022-11-20T10:00:34;39.25;;;18.60;;
58864;SDS011;45702;52.982;6.658;2022-11-20T10:03:02;36.42;;;15.93;;
58864;SDS011;45702;52.982;6.658;2022-11-20T10:05:34;33.42;;;16.45;;
58864;SDS011;45702;52.982;6.658;2022-11-20T10:08:22;32.17;;;15.20;;
58864;SDS011;45702;52.982;6.658;2022-11-20T10:10:50;32.33;;;16.05;;
58864;SDS011;45702;52.982;6.658;2022-11-20T10:24:24;28.98;;;15.75;;
58864;SDS011;45702;52.982;6.658;2022-11-20T10:26:32;35.95;;;16.13;;
58864;SDS011;45702;52.982;6.658;2022-11-20T10:31:31;30.83;;;15.50;;
58864;SDS011;45702;52.982;6.658;2022-11-20T10:33:59;30.50;;;15.85;;
58864;SDS011;45702;52.982;6.658;2022-11-20T10:36:38;32.33;;;14.63;;
58864;SDS011;45702;52.982;6.658;2022-11-20T10:41:50;30.85;;;15.38;;
58864;SDS011;45702;52.982;6.658;2022-11-20T10:47:04;29.50;;;14.55;;
58864;SDS011;45702;52.982;6.658;2022-11-20T10:49:32;28.00;;;14.52;;
58864;SDS011;45702;52.982;6.658;2022-11-20T10:57:25;28.35;;;14.38;;
58864;SDS011;45702;52.982;6.658;2022-11-20T10:59:57;32.25;;;15.15;;
58864;SDS011;45702;52.982;6.658;2022-11-20T11:02:33;31.08;;;15.00;;
58864;SDS011;45702;52.982;6.658;2022-11-20T11:05:04;29.52;;;15.07;;
58864;SDS011;45702;52.982;6.658;2022-11-20T11:07:36;30.38;;;15.02;;
58864;SDS011;45702;52.982;6.658;2022-11-20T11:10:12;29.98;;;14.73;;
58864;SDS011;45702;52.982;6.658;2022-11-20T11:12:42;29.92;;;15.43;;
58864;SDS011;45702;52.982;6.658;2022-11-20T11:15:13;29.60;;;15.55;;
58864;SDS011;45702;52.982;6.658;2022-11-20T11:17:46;25.55;;;14.23;;
58864;SDS011;45702;52.982;6.658;2022-11-20T11:20:23;26.58;;;14.02;;
58864;SDS011;45702;52.982;6.658;2022-11-20T11:22:54;28.00;;;14.15;;
58864;SDS011;45702;52.982;6.658;2022-11-20T11:27:50;27.17;;;14.15;;
58864;SDS011;45702;52.982;6.658;2022-11-20T11:30:17;27.80;;;14.18;;
58864;SDS011;45702;52.982;6.658;2022-11-20T11:32:44;27.92;;;14.38;;
58864;SDS011;45702;52.982;6.658;2022-11-20T11:35:20;28.67;;;13.82;;
58864;SDS011;45702;52.982;6.658;2022-11-20T11:37:47;32.92;;;14.57;;
58864;SDS011;45702;52.982;6.658;2022-11-20T11:40:14;29.05;;;14.18;;
58864;SDS011;45702;52.982;6.658;2022-11-20T11:42:41;26.92;;;13.82;;
58864;SDS011;45702;52.982;6.658;2022-11-20T11:45:11;26.33;;;12.95;;
58864;SDS011;45702;52.982;6.658;2022-11-20T11:47:44;24.60;;;12.93;;
58864;SDS011;45702;52.982;6.658;2022-11-20T12:00:26;25.63;;;13.80;;
58864;SDS011;45702;52.982;6.658;2022-11-20T12:03:14;25.30;;;13.10;;
58864;SDS011;45702;52.982;6.658;2022-11-20T12:05:40;25.17;;;12.60;;
58864;SDS011;45702;52.982;6.658;2022-11-20T12:10:57;26.73;;;13.40;;
58864;SDS011;45702;52.982;6.658;2022-11-20T12:13:30;23.38;;;12.95;;
58864;SDS011;45702;52.982;6.658;2022-11-20T12:15:58;25.17;;;12.68;;
58864;SDS011;45702;52.982;6.658;2022-11-20T12:18:24;28.08;;;13.18;;
58864;SDS011;45702;52.982;6.658;2022-11-20T12:20:59;22.98;;;12.70;;
58864;SDS011;45702;52.982;6.658;2022-11-20T12:26:05;23.25;;;12.02;;
58864;SDS011;45702;52.982;6.658;2022-11-20T12:28:38;26.58;;;12.32;;
58864;SDS011;45702;52.982;6.658;2022-11-20T12:33:47;22.45;;;11.75;;
58864;SDS011;45702;52.982;6.658;2022-11-20T12:36:27;24.60;;;11.73;;
58864;SDS011;45702;52.982;6.658;2022-11-20T12:39:10;21.10;;;11.88;;
58864;SDS011;45702;52.982;6.658;2022-11-20T12:47:52;23.77;;;12.70;;
58864;SDS011;45702;52.982;6.658;2022-11-20T12:50:44;23.02;;;11.63;;
58864;SDS011;45702;52.982;6.658;2022-11-20T12:53:21;22.58;;;12.02;;
58864;SDS011;45702;52.982;6.658;2022-11-20T13:01:25;23.33;;;12.32;;
58864;SDS011;45702;52.982;6.658;2022-11-20T13:04:16;23.92;;;12.18;;
58864;SDS011;45702;52.982;6.658;2022-11-20T13:06:45;21.95;;;11.27;;
58864;SDS011;45702;52.982;6.658;2022-11-20T13:09:13;21.75;;;11.98;;
58864;SDS011;45702;52.982;6.658;2022-11-20T13:14:51;20.83;;;11.02;;
58864;SDS011;45702;52.982;6.658;2022-11-20T13:17:22;21.77;;;11.15;;
58864;SDS011;45702;52.982;6.658;2022-11-20T13:19:52;20.05;;;11.18;;
58864;SDS011;45702;52.982;6.658;2022-11-20T13:22:29;18.15;;;10.05;;
58864;SDS011;45702;52.982;6.658;2022-11-20T13:24:55;19.20;;;10.02;;
58864;SDS011;45702;52.982;6.658;2022-11-20T13:27:22;17.25;;;8.63;;
58864;SDS011;45702;52.982;6.658;2022-11-20T13:32:33;18.13;;;9.40;;
58864;SDS011;45702;52.982;6.658;2022-11-20T13:35:00;17.52;;;9.88;;
58864;SDS011;45702;52.982;6.658;2022-11-20T13:39:52;17.23;;;9.60;;
58864;SDS011;45702;52.982;6.658;2022-11-20T13:42:27;18.50;;;10.13;;
58864;SDS011;45702;52.982;6.658;2022-11-20T13:44:54;21.20;;;10.45;;
58864;SDS011;45702;52.982;6.658;2022-11-20T13:47:21;20.77;;;10.52;;
58864;SDS011;45702;52.982;6.658;2022-11-20T13:49:48;18.02;;;9.57;;
58864;SDS011;45702;52.982;6.658;2022-11-20T14:00:09;20.80;;;11.38;;
58864;SDS011;45702;52.982;6.658;2022-11-20T14:02:35;21.48;;;12.77;;
58864;SDS011;45702;52.982;6.658;2022-11-20T14:05:01;22.77;;;11.73;;
58864;SDS011;45702;52.982;6.658;2022-11-20T14:07:39;23.77;;;12.48;;
58864;SDS011;45702;52.982;6.658;2022-11-20T14:10:18;21.60;;;11.57;;
58864;SDS011;45702;52.982;6.658;2022-11-20T14:12:45;20.45;;;11.98;;
58864;SDS011;45702;52.982;6.658;2022-11-20T14:15:30;22.35;;;12.32;;
58864;SDS011;45702;52.982;6.658;2022-11-20T14:17:57;23.35;;;12.75;;
58864;SDS011;45702;52.982;6.658;2022-11-20T14:20:24;22.67;;;12.38;;
58864;SDS011;45702;52.982;6.658;2022-11-20T14:22:52;25.17;;;12.95;;
58864;SDS011;45702;52.982;6.658;2022-11-20T14:25:24;23.27;;;12.32;;
58864;SDS011;45702;52.982;6.658;2022-11-20T14:27:56;24.45;;;13.55;;
58864;SDS011;45702;52.982;6.658;2022-11-20T14:30:23;60.63;;;31.10;;
58864;SDS011;45702;52.982;6.658;2022-11-20T14:32:50;34.47;;;18.85;;
58864;SDS011;45702;52.982;6.658;2022-11-20T14:35:27;28.83;;;14.55;;
58864;SDS011;45702;52.982;6.658;2022-11-20T14:37:56;27.92;;;13.88;;
58864;SDS011;45702;52.982;6.658;2022-11-20T14:42:56;29.52;;;14.93;;
58864;SDS011;45702;52.982;6.658;2022-11-20T14:45:22;27.55;;;14.55;;
58864;SDS011;45702;52.982;6.658;2022-11-20T14:47:48;26.17;;;14.40;;
58864;SDS011;45702;52.982;6.658;2022-11-20T14:50:25;28.60;;;14.93;;
58864;SDS011;45702;52.982;6.658;2022-11-20T14:52:53;30.77;;;15.63;;
58864;SDS011;45702;52.982;6.658;2022-11-20T14:55:30;28.10;;;15.63;;
58864;SDS011;45702;52.982;6.658;2022-11-20T14:58:03;26.98;;;14.82;;
58864;SDS011;45702;52.982;6.658;2022-11-20T15:00:30;28.58;;;15.23;;
58864;SDS011;45702;52.982;6.658;2022-11-20T15:02:56;26.60;;;13.93;;
58864;SDS011;45702;52.982;6.658;2022-11-20T15:05:25;26.50;;;14.47;;
58864;SDS011;45702;52.982;6.658;2022-11-20T15:08:04;29.67;;;14.50;;
58864;SDS011;45702;52.982;6.658;2022-11-20T15:10:30;27.52;;;14.43;;
58864;SDS011;45702;52.982;6.658;2022-11-20T15:13:02;28.55;;;14.98;;
58864;SDS011;45702;52.982;6.658;2022-11-20T15:15:33;32.13;;;16.83;;
58864;SDS011;45702;52.982;6.658;2022-11-20T15:18:01;32.47;;;17.17;;
58864;SDS011;45702;52.982;6.658;2022-11-20T15:20:28;33.38;;;17.20;;
58864;SDS011;45702;52.982;6.658;2022-11-20T15:22:56;38.17;;;20.23;;
58864;SDS011;45702;52.982;6.658;2022-11-20T15:25:22;37.00;;;18.92;;
58864;SDS011;45702;52.982;6.658;2022-11-20T15:27:50;30.38;;;17.00;;
58864;SDS011;45702;52.982;6.658;2022-11-20T15:30:18;34.25;;;17.63;;
58864;SDS011;45702;52.982;6.658;2022-11-20T15:32:45;29.52;;;15.15;;
58864;SDS011;45702;52.982;6.658;2022-11-20T15:35:11;31.70;;;15.50;;
58864;SDS011;45702;52.982;6.658;2022-11-20T15:37:38;35.03;;;17.67;;
58864;SDS011;45702;52.982;6.658;2022-11-20T15:40:06;30.92;;;16.08;;
58864;SDS011;45702;52.982;6.658;2022-11-20T15:42:32;32.60;;;16.92;;
58864;SDS011;45702;52.982;6.658;2022-11-20T15:44:59;34.95;;;18.52;;
58864;SDS011;45702;52.982;6.658;2022-11-20T15:47:29;34.10;;;17.95;;
58864;SDS011;45702;52.982;6.658;2022-11-20T15:49:56;37.15;;;18.08;;
58864;SDS011;45702;52.982;6.658;2022-11-20T15:52:22;33.90;;;17.95;;
58864;SDS011;45702;52.982;6.658;2022-11-20T15:54:48;38.63;;;18.40;;
58864;SDS011;45702;52.982;6.658;2022-11-20T15:57:14;34.70;;;17.58;;